Time,TemperatureF,DewpointF,PressureIn,WindDirection,WindDirectionDegrees,WindSpeedMPH,WindSpeedGustMPH,Humidity,HourlyPrecipIn,Conditions,Clouds,dailyrainin,SoftwareType,DateUTC
2013-04-25 00:03:00,42.9,37.6,30.26,North,0,0.0,0.0,81,0.00,,,-99.99,Meteorologica,2013-04-25 05:03:00,
2013-04-25 00:08:00,42.5,37.3,30.26,North,0,0.0,0.0,81,0.00,,,-99.99,Meteorologica,2013-04-25 05:08:00,
2013-04-25 00:13:00,42.3,37.4,30.27,North,0,0.0,0.0,82,0.00,,,-99.99,Meteorologica,2013-04-25 05:13:00,
2013-04-25 00:18:00,42.0,37.2,30.26,North,0,0.0,0.0,83,0.00,,,-99.99,Meteorologica,2013-04-25 05:18:00,
2013-04-25 00:23:00,41.8,37.2,30.26,North,0,0.0,0.0,83,0.00,,,-99.99,Meteorologica,2013-04-25 05:23:00,
2013-04-25 00:28:00,41.6,37.2,30.26,North,0,0.0,0.0,84,0.00,,,-99.99,Meteorologica,2013-04-25 05:28:00,
2013-04-25 00:33:00,41.4,37.0,30.27,North,0,0.0,0.0,84,0.00,,,-99.99,Meteorologica,2013-04-25 05:33:00,
2013-04-25 00:38:00,41.2,37.2,30.27,North,0,0.0,0.0,85,0.00,,,-99.99,Meteorologica,2013-04-25 05:38:00,
2013-04-25 00:43:00,40.9,37.2,30.27,North,0,0.0,0.0,86,0.00,,,-99.99,Meteorologica,2013-04-25 05:43:00,
2013-04-25 00:48:00,40.7,36.8,30.27,North,0,0.0,0.0,86,0.00,,,-99.99,Meteorologica,2013-04-25 05:48:00,
2013-04-25 00:53:00,40.5,36.8,30.27,North,0,0.0,0.0,86,0.00,,,-99.99,Meteorologica,2013-04-25 05:53:00,
2013-04-25 00:58:00,40.2,36.7,30.27,North,0,0.0,0.0,87,0.00,,,-99.99,Meteorologica,2013-04-25 05:58:00,
2013-04-25 01:03:00,39.8,36.6,30.27,North,0,0.0,0.0,88,0.00,,,-99.99,Meteorologica,2013-04-25 06:03:00,
2013-04-25 01:08:00,39.5,36.3,30.27,North,0,0.0,0.0,88,0.00,,,-99.99,Meteorologica,2013-04-25 06:08:00,
2013-04-25 01:13:00,39.1,36.0,30.27,North,0,0.0,0.0,88,0.00,,,-99.99,Meteorologica,2013-04-25 06:13:00,
2013-04-25 01:18:00,38.7,35.8,30.27,North,0,0.0,0.0,89,0.00,,,-99.99,Meteorologica,2013-04-25 06:18:00,
2013-04-25 01:23:00,38.5,35.7,30.27,North,0,0.0,0.0,89,0.00,,,-99.99,Meteorologica,2013-04-25 06:23:00,
2013-04-25 01:28:00,38.3,35.6,30.27,North,0,0.0,0.0,89,0.00,,,-99.99,Meteorologica,2013-04-25 06:28:00,
2013-04-25 01:33:00,38.3,35.7,30.27,North,0,0.0,0.0,90,0.00,,,-99.99,Meteorologica,2013-04-25 06:33:00,
2013-04-25 01:38:00,38.3,35.8,30.28,North,0,0.0,0.0,90,0.00,,,-99.99,Meteorologica,2013-04-25 06:38:00,
2013-04-25 01:43:00,38.3,35.7,30.28,SE,135,2.6,2.6,90,0.00,,,-99.99,Meteorologica,2013-04-25 06:43:00,
2013-04-25 01:48:00,38.1,35.6,30.28,SE,128,0.0,0.0,90,0.00,,,-99.99,Meteorologica,2013-04-25 06:48:00,
2013-04-25 01:53:00,38.0,35.5,30.28,SE,128,0.0,0.0,90,0.00,,,-99.99,Meteorologica,2013-04-25 06:53:00,
2013-04-25 01:58:00,37.9,35.4,30.28,SE,128,0.0,0.0,90,0.00,,,-99.99,Meteorologica,2013-04-25 06:58:00,
2013-04-25 02:03:00,37.7,35.2,30.29,SE,128,0.0,0.0,90,0.00,,,-99.99,Meteorologica,2013-04-25 07:03:00,
2013-04-25 02:08:00,37.6,35.2,30.28,SE,128,0.0,0.0,91,0.00,,,-99.99,Meteorologica,2013-04-25 07:08:00,
2013-04-25 02:13:00,37.6,35.2,30.28,SE,128,0.0,0.0,91,0.00,,,-99.99,Meteorologica,2013-04-25 07:13:00,
2013-04-25 02:18:00,37.4,35.0,30.28,SE,128,0.0,0.0,91,0.00,,,-99.99,Meteorologica,2013-04-25 07:18:00,
2013-04-25 02:23:00,37.4,35.0,30.28,SE,128,0.0,0.0,91,0.00,,,-99.99,Meteorologica,2013-04-25 07:23:00,
2013-04-25 02:28:00,37.2,34.9,30.28,SE,128,0.0,0.0,91,0.00,,,-99.99,Meteorologica,2013-04-25 07:28:00,
2013-04-25 02:33:00,37.1,34.8,30.29,SE,128,0.0,0.0,91,0.00,,,-99.99,Meteorologica,2013-04-25 07:33:00,
2013-04-25 02:38:00,37.1,34.8,30.28,SE,128,0.0,0.0,91,0.00,,,-99.99,Meteorologica,2013-04-25 07:38:00,
2013-04-25 02:43:00,36.9,34.6,30.28,SE,128,0.0,0.0,91,0.00,,,-99.99,Meteorologica,2013-04-25 07:43:00,
2013-04-25 02:48:00,36.8,34.5,30.28,SE,128,0.0,0.0,91,0.00,,,-99.99,Meteorologica,2013-04-25 07:48:00,
2013-04-25 02:53:00,36.6,34.4,30.28,SE,128,0.0,0.0,91,0.00,,,-99.99,Meteorologica,2013-04-25 07:53:00,
2013-04-25 02:58:00,36.4,34.2,30.28,SE,128,0.0,0.0,91,0.00,,,-99.99,Meteorologica,2013-04-25 07:58:00,
2013-04-25 03:03:00,36.3,34.1,30.28,SE,128,0.0,0.0,91,0.00,,,-99.99,Meteorologica,2013-04-25 08:03:00,
2013-04-25 03:08:00,36.2,34.1,30.27,SE,128,0.0,0.0,92,0.00,,,-99.99,Meteorologica,2013-04-25 08:08:00,
2013-04-25 03:13:00,36.1,34.0,30.28,SE,128,0.0,0.0,92,0.00,,,-99.99,Meteorologica,2013-04-25 08:13:00,
2013-04-25 03:18:00,36.0,33.9,30.28,SE,128,0.0,0.0,92,0.00,,,-99.99,Meteorologica,2013-04-25 08:18:00,
2013-04-25 03:23:00,36.0,33.9,30.28,SE,128,0.0,0.0,92,0.00,,,-99.99,Meteorologica,2013-04-25 08:23:00,
2013-04-25 03:28:00,35.8,33.7,30.28,SE,128,0.0,0.0,92,0.00,,,-99.99,Meteorologica,2013-04-25 08:28:00,
2013-04-25 03:33:00,35.7,33.6,30.28,SE,128,0.0,0.0,92,0.00,,,-99.99,Meteorologica,2013-04-25 08:33:00,
2013-04-25 03:38:00,35.5,33.4,30.28,SE,128,0.0,0.0,92,0.00,,,-99.99,Meteorologica,2013-04-25 08:38:00,
2013-04-25 03:43:00,35.4,33.4,30.28,SE,128,0.0,0.0,92,0.00,,,-99.99,Meteorologica,2013-04-25 08:43:00,
2013-04-25 03:48:00,35.3,33.3,30.27,SE,128,0.0,0.0,92,0.00,,,-99.99,Meteorologica,2013-04-25 08:48:00,
2013-04-25 03:53:00,35.2,33.2,30.28,SE,128,0.0,0.0,92,0.00,,,-99.99,Meteorologica,2013-04-25 08:53:00,
2013-04-25 03:58:00,35.1,33.1,30.28,SE,128,0.0,0.0,92,0.00,,,-99.99,Meteorologica,2013-04-25 08:58:00,
2013-04-25 04:03:00,34.9,32.9,30.27,SE,128,0.0,0.0,92,0.00,,,-99.99,Meteorologica,2013-04-25 09:03:00,
2013-04-25 04:08:00,34.9,32.9,30.28,SE,128,0.0,0.0,92,0.00,,,-99.99,Meteorologica,2013-04-25 09:08:00,
2013-04-25 04:13:00,34.8,32.9,30.28,SE,128,0.0,0.0,92,0.00,,,-99.99,Meteorologica,2013-04-25 09:13:00,
2013-04-25 04:18:00,34.8,32.9,30.28,SE,128,0.0,0.0,92,0.00,,,-99.99,Meteorologica,2013-04-25 09:18:00,
2013-04-25 04:23:00,34.8,32.9,30.28,SE,128,0.0,0.0,92,0.00,,,-99.99,Meteorologica,2013-04-25 09:23:00,
2013-04-25 04:28:00,34.8,32.9,30.28,SE,128,0.0,0.0,92,0.00,,,-99.99,Meteorologica,2013-04-25 09:28:00,
2013-04-25 04:33:00,34.8,32.9,30.28,SE,128,0.0,0.0,93,0.00,,,-99.99,Meteorologica,2013-04-25 09:33:00,
2013-04-25 04:38:00,34.8,32.9,30.29,SE,128,0.0,0.0,93,0.00,,,-99.99,Meteorologica,2013-04-25 09:38:00,
2013-04-25 04:43:00,34.7,32.8,30.29,SE,128,0.0,0.0,93,0.00,,,-99.99,Meteorologica,2013-04-25 09:43:00,
2013-04-25 04:48:00,34.6,32.7,30.28,SE,128,0.0,0.0,93,0.00,,,-99.99,Meteorologica,2013-04-25 09:48:00,
2013-04-25 04:53:00,34.4,32.5,30.28,SE,128,0.0,0.0,93,0.00,,,-99.99,Meteorologica,2013-04-25 09:53:00,
2013-04-25 04:58:00,34.3,32.4,30.28,SE,128,0.0,0.0,93,0.00,,,-99.99,Meteorologica,2013-04-25 09:58:00,
2013-04-25 05:03:00,34.2,32.4,30.29,SE,128,0.0,0.0,93,0.00,,,-99.99,Meteorologica,2013-04-25 10:03:00,
2013-04-25 05:08:00,34.2,32.4,30.29,SE,128,0.0,0.0,93,0.00,,,-99.99,Meteorologica,2013-04-25 10:08:00,
2013-04-25 05:13:00,34.1,32.3,30.29,SE,128,0.0,0.0,93,0.00,,,-99.99,Meteorologica,2013-04-25 10:13:00,
2013-04-25 05:18:00,34.1,32.3,30.28,SE,128,0.0,0.0,93,0.00,,,-99.99,Meteorologica,2013-04-25 10:18:00,
2013-04-25 05:23:00,34.1,32.3,30.29,SE,128,0.0,0.0,93,0.00,,,-99.99,Meteorologica,2013-04-25 10:23:00,
2013-04-25 05:28:00,34.2,32.4,30.29,SE,128,0.0,0.0,93,0.00,,,-99.99,Meteorologica,2013-04-25 10:28:00,
2013-04-25 05:33:00,34.1,32.3,30.29,SE,128,0.0,0.0,93,0.00,,,-99.99,Meteorologica,2013-04-25 10:33:00,
2013-04-25 05:38:00,34.2,32.5,30.28,SE,128,0.0,0.0,93,0.00,,,-99.99,Meteorologica,2013-04-25 10:38:00,
2013-04-25 05:43:00,34.2,32.5,30.28,SE,128,0.0,0.0,93,0.00,,,-99.99,Meteorologica,2013-04-25 10:43:00,
2013-04-25 05:48:00,34.1,32.4,30.28,SE,128,0.0,0.0,93,0.00,,,-99.99,Meteorologica,2013-04-25 10:48:00,
2013-04-25 05:53:00,34.0,32.3,30.28,SE,128,0.0,0.0,93,0.00,,,-99.99,Meteorologica,2013-04-25 10:53:00,
2013-04-25 05:58:00,33.9,32.2,30.29,SE,128,0.0,0.0,93,0.00,,,-99.99,Meteorologica,2013-04-25 10:58:00,
2013-04-25 06:03:00,33.8,32.1,30.29,SE,128,0.0,0.0,93,0.00,,,-99.99,Meteorologica,2013-04-25 11:03:00,
2013-04-25 06:08:00,33.7,32.0,30.29,SE,128,0.0,0.0,93,0.00,,,-99.99,Meteorologica,2013-04-25 11:08:00,
2013-04-25 06:13:00,33.6,31.9,30.29,SE,128,0.0,0.0,93,0.00,,,-99.99,Meteorologica,2013-04-25 11:13:00,
2013-04-25 06:18:00,33.5,31.8,30.29,SE,128,0.0,0.0,93,0.00,,,-99.99,Meteorologica,2013-04-25 11:18:00,
2013-04-25 06:23:00,33.4,31.7,30.29,SE,128,0.0,0.0,93,0.00,,,-99.99,Meteorologica,2013-04-25 11:23:00,
2013-04-25 06:28:00,33.3,31.6,30.29,SE,128,0.0,0.0,93,0.00,,,-99.99,Meteorologica,2013-04-25 11:28:00,
2013-04-25 06:33:00,33.2,31.5,30.29,SE,128,0.0,0.0,93,0.00,,,-99.99,Meteorologica,2013-04-25 11:33:00,
2013-04-25 06:38:00,33.2,31.5,30.30,SE,128,0.0,0.0,93,0.00,,,-99.99,Meteorologica,2013-04-25 11:38:00,
2013-04-25 06:43:00,33.1,31.4,30.30,SE,128,0.0,0.0,93,0.00,,,-99.99,Meteorologica,2013-04-25 11:43:00,
2013-04-25 06:48:00,33.1,31.4,30.30,SE,128,0.0,0.0,93,0.00,,,-99.99,Meteorologica,2013-04-25 11:48:00,
2013-04-25 06:53:00,33.0,31.4,30.30,SE,128,0.0,0.0,93,0.00,,,-99.99,Meteorologica,2013-04-25 11:53:00,
2013-04-25 06:58:00,33.1,31.4,30.30,SE,128,0.0,0.0,93,0.00,,,-99.99,Meteorologica,2013-04-25 11:58:00,
2013-04-25 07:03:00,33.2,31.6,30.30,SE,128,0.0,0.0,93,0.00,,,-99.99,Meteorologica,2013-04-25 12:03:00,
2013-04-25 07:08:00,33.3,31.7,30.30,SE,128,0.0,0.0,93,0.00,,,-99.99,Meteorologica,2013-04-25 12:08:00,
2013-04-25 07:13:00,33.4,31.8,30.31,SE,128,0.0,0.0,94,0.00,,,-99.99,Meteorologica,2013-04-25 12:13:00,
2013-04-25 07:18:00,33.6,32.0,30.31,SE,128,0.0,0.0,94,0.00,,,-99.99,Meteorologica,2013-04-25 12:18:00,
2013-04-25 07:23:00,33.7,32.1,30.31,SE,128,0.0,0.0,94,0.00,,,-99.99,Meteorologica,2013-04-25 12:23:00,
2013-04-25 07:28:00,34.0,32.4,30.31,SE,128,0.0,0.0,94,0.00,,,-99.99,Meteorologica,2013-04-25 12:28:00,
2013-04-25 07:33:00,34.3,32.8,30.31,SE,128,0.0,0.0,94,0.00,,,-99.99,Meteorologica,2013-04-25 12:33:00,
2013-04-25 07:38:00,34.8,33.2,30.31,SE,128,0.0,0.0,94,0.00,,,-99.99,Meteorologica,2013-04-25 12:38:00,
2013-04-25 07:43:00,35.0,33.3,30.32,SE,128,0.0,0.0,93,0.00,,,-99.99,Meteorologica,2013-04-25 12:43:00,
2013-04-25 07:49:00,35.3,33.6,30.31,SSE,159,0.0,0.0,93,0.00,,,-99.99,Meteorologica,2013-04-25 12:49:00,
2013-04-25 07:54:00,36.0,34.3,30.31,SSE,159,0.0,0.0,93,0.00,,,-99.99,Meteorologica,2013-04-25 12:54:00,
2013-04-25 07:59:00,36.6,34.8,30.31,SSE,159,0.0,0.0,93,0.00,,,-99.99,Meteorologica,2013-04-25 12:59:00,
2013-04-25 08:04:00,36.9,35.1,30.31,SE,136,0.3,3.2,93,0.00,,,-99.99,Meteorologica,2013-04-25 13:04:00,
2013-04-25 08:09:00,37.5,35.6,30.32,SSE,152,0.0,0.0,92,0.00,,,-99.99,Meteorologica,2013-04-25 13:09:00,
2013-04-25 08:14:00,38.1,36.0,30.31,SE,136,3.0,4.8,92,0.00,,,-99.99,Meteorologica,2013-04-25 13:14:00,
2013-04-25 08:19:00,38.7,36.6,30.31,SSE,166,1.3,3.1,92,0.00,,,-99.99,Meteorologica,2013-04-25 13:19:00,
2013-04-25 08:24:00,39.2,36.9,30.31,SSE,166,0.0,0.0,91,0.00,,,-99.99,Meteorologica,2013-04-25 13:24:00,
2013-04-25 08:29:00,39.9,37.5,30.31,SSE,166,0.0,0.0,91,0.00,,,-99.99,Meteorologica,2013-04-25 13:29:00,
2013-04-25 08:34:00,40.6,38.1,30.31,SSE,166,0.0,0.0,91,0.00,,,-99.99,Meteorologica,2013-04-25 13:34:00,
2013-04-25 08:39:00,41.8,39.2,30.31,SSE,166,0.0,0.0,90,0.00,,,-99.99,Meteorologica,2013-04-25 13:39:00,
2013-04-25 08:44:00,42.5,39.5,30.31,SSE,166,0.0,0.0,89,0.00,,,-99.99,Meteorologica,2013-04-25 13:44:00,
2013-04-25 08:49:00,43.1,39.3,30.30,SSE,159,1.6,5.0,86,0.00,,,-99.99,Meteorologica,2013-04-25 13:49:00,
2013-04-25 08:54:00,43.6,39.5,30.30,SSE,159,0.0,0.0,85,0.00,,,-99.99,Meteorologica,2013-04-25 13:54:00,
2013-04-25 08:59:00,44.0,39.4,30.30,SSW,207,4.2,5.6,83,0.00,,,-99.99,Meteorologica,2013-04-25 13:59:00,
2013-04-25 09:04:00,44.7,40.3,30.29,SSW,213,0.0,0.0,84,0.00,,,-99.99,Meteorologica,2013-04-25 14:04:00,
2013-04-25 09:09:00,45.5,40.9,30.29,South,190,0.4,3.2,83,0.00,,,-99.99,Meteorologica,2013-04-25 14:09:00,
2013-04-25 09:14:00,46.4,41.6,30.29,SSE,155,0.0,0.0,83,0.00,,,-99.99,Meteorologica,2013-04-25 14:14:00,
2013-04-25 09:19:00,47.4,41.8,30.29,SSE,159,0.0,0.0,80,0.00,,,-99.99,Meteorologica,2013-04-25 14:19:00,
2013-04-25 09:24:00,48.0,42.4,30.29,SSE,159,0.0,0.0,80,0.00,,,-99.99,Meteorologica,2013-04-25 14:24:00,
2013-04-25 09:29:00,48.8,42.4,30.28,South,169,0.1,1.9,78,0.00,,,-99.99,Meteorologica,2013-04-25 14:29:00,
2013-04-25 09:34:00,49.4,42.3,30.28,SW,215,2.4,4.4,76,0.00,,,-99.99,Meteorologica,2013-04-25 14:34:00,
2013-04-25 09:39:00,50.1,42.4,30.28,SSW,212,1.7,5.8,74,0.00,,,-99.99,Meteorologica,2013-04-25 14:39:00,
2013-04-25 09:44:00,50.8,43.5,30.28,SW,218,0.0,0.0,75,0.00,,,-99.99,Meteorologica,2013-04-25 14:44:00,
2013-04-25 09:49:00,52.0,43.4,30.28,SSE,158,0.0,0.0,72,0.00,,,-99.99,Meteorologica,2013-04-25 14:49:00,
2013-04-25 09:54:00,52.7,44.1,30.29,WSW,254,0.3,4.5,72,0.00,,,-99.99,Meteorologica,2013-04-25 14:54:00,
2013-04-25 09:59:00,53.5,43.2,30.28,WSW,248,0.0,0.0,67,0.00,,,-99.99,Meteorologica,2013-04-25 14:59:00,
2013-04-25 10:04:00,54.5,43.2,30.28,SSW,203,0.2,3.3,65,0.00,,,-99.99,Meteorologica,2013-04-25 15:04:00,
2013-04-25 10:09:00,55.4,42.0,30.28,SSE,160,0.0,0.0,61,0.00,,,-99.99,Meteorologica,2013-04-25 15:09:00,
2013-04-25 10:14:00,56.2,43.1,30.28,South,170,0.0,0.0,61,0.00,,,-99.99,Meteorologica,2013-04-25 15:14:00,
2013-04-25 10:19:00,56.8,40.9,30.28,South,186,3.1,5.0,55,0.00,,,-99.99,Meteorologica,2013-04-25 15:19:00,
2013-04-25 10:24:00,57.2,40.5,30.28,SW,231,4.4,9.6,54,0.00,,,-99.99,Meteorologica,2013-04-25 15:24:00,
2013-04-25 10:29:00,57.7,42.0,30.28,SW,224,0.2,3.0,56,0.00,,,-99.99,Meteorologica,2013-04-25 15:29:00,
2013-04-25 10:34:00,58.1,41.2,30.28,SSW,209,4.8,7.1,53,0.00,,,-99.99,Meteorologica,2013-04-25 15:34:00,
2013-04-25 10:40:00,58.4,39.8,30.28,SSW,207,1.2,7.8,50,0.00,,,-99.99,Meteorologica,2013-04-25 15:40:00,
2013-04-25 10:45:00,58.7,41.1,30.28,South,175,7.3,11.0,51,0.00,,,-99.99,Meteorologica,2013-04-25 15:45:00,
2013-04-25 10:50:00,59.1,37.1,30.28,WSW,248,5.2,10.0,45,0.00,,,-99.99,Meteorologica,2013-04-25 15:50:00,
2013-04-25 10:55:00,59.4,40.0,30.28,SSE,160,4.3,8.4,48,0.00,,,-99.99,Meteorologica,2013-04-25 15:55:00,
2013-04-25 11:00:00,59.5,38.6,30.28,SW,225,4.4,9.6,45,0.00,,,-99.99,Meteorologica,2013-04-25 16:00:00,
2013-04-25 11:05:00,59.7,39.4,30.28,SSW,213,3.4,8.5,47,0.00,,,-99.99,Meteorologica,2013-04-25 16:05:00,
2013-04-25 11:10:00,59.9,37.3,30.28,South,170,1.8,10.4,43,0.00,,,-99.99,Meteorologica,2013-04-25 16:10:00,
2013-04-25 11:15:00,60.5,39.6,30.28,South,187,4.9,8.9,46,0.00,,,-99.99,Meteorologica,2013-04-25 16:15:00,
2013-04-25 11:20:00,60.9,38.9,30.28,SSE,152,2.3,6.5,43,0.00,,,-99.99,Meteorologica,2013-04-25 16:20:00,
2013-04-25 11:25:00,61.2,40.0,30.28,ESE,112,3.8,13.5,45,0.00,,,-99.99,Meteorologica,2013-04-25 16:25:00,
2013-04-25 11:30:00,61.5,39.1,30.28,SSW,201,0.0,9.1,43,0.00,,,-99.99,Meteorologica,2013-04-25 16:30:00,
2013-04-25 11:35:00,61.6,37.4,30.28,South,179,6.9,13.0,40,0.00,,,-99.99,Meteorologica,2013-04-25 16:35:00,
2013-04-25 11:40:00,61.6,38.0,30.28,SW,214,6.9,10.8,41,0.00,,,-99.99,Meteorologica,2013-04-25 16:40:00,
2013-04-25 11:45:00,62.0,39.0,30.27,SSW,210,3.0,8.7,42,0.00,,,-99.99,Meteorologica,2013-04-25 16:45:00,
2013-04-25 11:50:00,62.4,37.5,30.27,SW,230,6.3,13.9,38,0.00,,,-99.99,Meteorologica,2013-04-25 16:50:00,
2013-04-25 11:55:00,62.2,37.5,30.27,WSW,237,7.8,12.6,40,0.00,,,-99.99,Meteorologica,2013-04-25 16:55:00,
2013-04-25 12:00:00,62.4,37.5,30.27,SW,227,6.9,13.0,39,0.00,,,-99.99,Meteorologica,2013-04-25 17:00:00,
2013-04-25 12:05:00,62.7,37.7,30.27,SSW,210,5.8,9.8,39,0.00,,,-99.99,Meteorologica,2013-04-25 17:05:00,
2013-04-25 12:10:00,63.2,39.6,30.27,SSW,193,2.3,12.7,42,0.00,,,-99.99,Meteorologica,2013-04-25 17:10:00,
2013-04-25 12:15:00,63.7,38.5,30.26,SW,214,3.2,9.8,39,0.00,,,-99.99,Meteorologica,2013-04-25 17:15:00,
2013-04-25 12:20:00,64.2,39.2,30.27,SSW,212,6.4,9.9,39,0.00,,,-99.99,Meteorologica,2013-04-25 17:20:00,
2013-04-25 12:25:00,64.5,38.3,30.26,WSW,242,7.3,12.7,38,0.00,,,-99.99,Meteorologica,2013-04-25 17:25:00,
2013-04-25 12:30:00,64.1,36.5,30.26,SW,225,5.7,9.5,36,0.00,,,-99.99,Meteorologica,2013-04-25 17:30:00,
2013-04-25 12:35:00,64.6,35.9,30.25,SSE,161,5.3,11.5,34,0.00,,,-99.99,Meteorologica,2013-04-25 17:35:00,
2013-04-25 12:40:00,65.3,39.2,30.25,WNW,283,2.5,11.7,38,0.00,,,-99.99,Meteorologica,2013-04-25 17:40:00,
2013-04-25 12:45:00,65.9,37.5,30.25,South,186,7.8,10.3,35,0.00,,,-99.99,Meteorologica,2013-04-25 17:45:00,
2013-04-25 12:50:00,65.4,37.2,30.25,SW,225,6.7,13.3,35,0.00,,,-99.99,Meteorologica,2013-04-25 17:50:00,
2013-04-25 12:55:00,65.7,38.3,30.24,SSW,204,4.7,10.4,36,0.00,,,-99.99,Meteorologica,2013-04-25 17:55:00,
2013-04-25 13:00:00,65.7,39.3,30.24,SSW,211,5.2,8.5,38,0.00,,,-99.99,Meteorologica,2013-04-25 18:00:00,
2013-04-25 13:05:00,65.9,39.1,30.24,South,188,7.4,10.7,37,0.00,,,-99.99,Meteorologica,2013-04-25 18:05:00,
2013-04-25 13:10:00,65.9,37.7,30.24,SW,230,7.5,12.8,35,0.00,,,-99.99,Meteorologica,2013-04-25 18:10:00,
2013-04-25 13:15:00,66.4,39.5,30.23,SSW,198,7.8,12.0,37,0.00,,,-99.99,Meteorologica,2013-04-25 18:15:00,
2013-04-25 13:20:00,66.7,37.0,30.23,WSW,242,5.8,13.6,33,0.00,,,-99.99,Meteorologica,2013-04-25 18:20:00,
2013-04-25 13:25:00,66.6,37.3,30.23,SSW,204,4.6,8.8,34,0.00,,,-99.99,Meteorologica,2013-04-25 18:25:00,
2013-04-25 13:30:00,66.5,39.9,30.23,South,176,6.4,11.2,37,0.00,,,-99.99,Meteorologica,2013-04-25 18:30:00,
2013-04-25 13:35:00,66.8,40.3,30.22,SW,224,3.9,13.1,38,0.00,,,-99.99,Meteorologica,2013-04-25 18:35:00,
2013-04-25 13:40:00,66.7,41.2,30.22,SSW,199,4.8,8.5,39,0.00,,,-99.99,Meteorologica,2013-04-25 18:40:00,
2013-04-25 13:45:00,67.2,40.7,30.22,WSW,249,4.6,11.0,38,0.00,,,-99.99,Meteorologica,2013-04-25 18:45:00,
2013-04-25 13:50:00,67.9,38.1,30.21,SSW,200,9.2,11.2,33,0.00,,,-99.99,Meteorologica,2013-04-25 18:50:00,
2013-04-25 13:55:00,67.9,40.2,30.21,South,191,3.2,9.3,37,0.00,,,-99.99,Meteorologica,2013-04-25 18:55:00,
2013-04-25 14:00:00,67.9,37.8,30.21,WSW,237,5.7,9.4,33,0.00,,,-99.99,Meteorologica,2013-04-25 19:00:00,
2013-04-25 14:05:00,68.0,38.1,30.21,SW,220,6.1,11.0,33,0.00,,,-99.99,Meteorologica,2013-04-25 19:05:00,
2013-04-25 14:10:00,67.9,35.0,30.20,WSW,254,7.1,11.2,29,0.00,,,-99.99,Meteorologica,2013-04-25 19:10:00,
2013-04-25 14:15:00,68.2,37.0,30.20,West,266,5.5,9.5,31,0.00,,,-99.99,Meteorologica,2013-04-25 19:15:00,
2013-04-25 14:20:00,68.2,37.4,30.20,SSW,203,12.0,20.5,32,0.00,,,-99.99,Meteorologica,2013-04-25 19:20:00,
2013-04-25 14:25:00,68.9,36.0,30.20,SW,215,8.7,19.5,29,0.00,,,-99.99,Meteorologica,2013-04-25 19:25:00,
2013-04-25 14:30:00,68.4,35.3,30.19,SW,234,7.9,19.3,29,0.00,,,-99.99,Meteorologica,2013-04-25 19:30:00,
2013-04-25 14:35:00,68.5,35.5,30.19,SW,224,10.9,19.2,29,0.00,,,-99.99,Meteorologica,2013-04-25 19:35:00,
2013-04-25 14:40:00,68.5,35.2,30.19,West,266,8.2,14.8,29,0.00,,,-99.99,Meteorologica,2013-04-25 19:40:00,
2013-04-25 14:45:00,68.4,38.2,30.19,WSW,252,6.2,12.3,33,0.00,,,-99.99,Meteorologica,2013-04-25 19:45:00,
2013-04-25 14:50:00,68.3,39.2,30.19,SSW,197,3.2,14.7,34,0.00,,,-99.99,Meteorologica,2013-04-25 19:50:00,
2013-04-25 14:55:00,68.0,37.9,30.19,SW,233,6.5,11.1,33,0.00,,,-99.99,Meteorologica,2013-04-25 19:55:00,
2013-04-25 15:00:00,68.9,38.7,30.18,SSW,202,4.4,9.9,33,0.00,,,-99.99,Meteorologica,2013-04-25 20:00:00,
2013-04-25 15:05:00,69.2,39.0,30.18,SW,216,9.7,18.2,33,0.00,,,-99.99,Meteorologica,2013-04-25 20:05:00,
2013-04-25 15:10:00,69.4,40.2,30.18,South,187,8.6,14.4,34,0.00,,,-99.99,Meteorologica,2013-04-25 20:10:00,
2013-04-25 15:15:00,69.6,38.8,30.18,SSW,207,10.4,17.7,32,0.00,,,-99.99,Meteorologica,2013-04-25 20:15:00,
2013-04-25 15:20:00,69.5,38.3,30.17,South,181,10.8,16.9,32,0.00,,,-99.99,Meteorologica,2013-04-25 20:20:00,
2013-04-25 15:25:00,69.3,35.5,30.17,WSW,245,8.6,16.3,29,0.00,,,-99.99,Meteorologica,2013-04-25 20:25:00,
2013-04-25 15:30:00,69.7,38.5,30.17,WNW,291,6.1,14.4,32,0.00,,,-99.99,Meteorologica,2013-04-25 20:30:00,
2013-04-25 15:35:00,69.5,36.7,30.16,SW,218,8.6,14.6,30,0.00,,,-99.99,Meteorologica,2013-04-25 20:35:00,
2013-04-25 15:40:00,69.4,38.3,30.16,SW,229,6.3,16.4,32,0.00,,,-99.99,Meteorologica,2013-04-25 20:40:00,
2013-04-25 15:45:00,69.7,37.7,30.16,South,183,9.1,16.4,31,0.00,,,-99.99,Meteorologica,2013-04-25 20:45:00,
2013-04-25 15:50:00,69.7,38.5,30.16,SSW,205,8.0,17.1,32,0.00,,,-99.99,Meteorologica,2013-04-25 20:50:00,
2013-04-25 15:55:00,69.8,38.0,30.15,South,169,10.3,19.0,31,0.00,,,-99.99,Meteorologica,2013-04-25 20:55:00,
2013-04-25 16:00:00,69.8,37.2,30.15,SSW,204,12.8,24.7,30,0.00,,,-99.99,Meteorologica,2013-04-25 21:00:00,
2013-04-25 16:05:00,70.1,39.8,30.14,SSW,212,5.8,10.2,33,0.00,,,-99.99,Meteorologica,2013-04-25 21:05:00,
2013-04-25 16:10:00,69.9,36.9,30.14,SSW,208,8.8,20.0,30,0.00,,,-99.99,Meteorologica,2013-04-25 21:10:00,
2013-04-25 16:15:00,70.5,39.0,30.14,South,183,9.8,18.9,31,0.00,,,-99.99,Meteorologica,2013-04-25 21:15:00,
2013-04-25 16:20:00,70.2,38.2,30.14,SSW,202,9.5,16.7,31,0.00,,,-99.99,Meteorologica,2013-04-25 21:20:00,
2013-04-25 16:25:00,70.2,39.3,30.13,WSW,255,5.3,18.9,32,0.00,,,-99.99,Meteorologica,2013-04-25 21:25:00,
2013-04-25 16:30:00,70.0,37.4,30.14,SSW,203,12.1,19.5,30,0.00,,,-99.99,Meteorologica,2013-04-25 21:30:00,
2013-04-25 16:35:00,69.7,38.0,30.13,South,180,9.4,15.8,31,0.00,,,-99.99,Meteorologica,2013-04-25 21:35:00,
2013-04-25 16:40:00,69.5,39.1,30.13,SW,229,6.7,16.6,33,0.00,,,-99.99,Meteorologica,2013-04-25 21:40:00,
2013-04-25 16:45:00,69.0,37.8,30.13,SW,215,11.7,19.7,32,0.00,,,-99.99,Meteorologica,2013-04-25 21:45:00,
2013-04-25 16:50:00,69.3,38.9,30.12,SSW,210,11.4,19.3,33,0.00,,,-99.99,Meteorologica,2013-04-25 21:50:00,
2013-04-25 16:55:00,68.9,39.8,30.12,WSW,248,6.2,15.7,34,0.00,,,-99.99,Meteorologica,2013-04-25 21:55:00,
2013-04-25 17:00:00,69.1,40.6,30.12,WSW,243,7.9,11.8,35,0.00,,,-99.99,Meteorologica,2013-04-25 22:00:00,
2013-04-25 17:05:00,69.2,41.0,30.11,SSW,192,5.7,11.2,35,0.00,,,-99.99,Meteorologica,2013-04-25 22:05:00,
2013-04-25 17:10:00,68.8,41.1,30.11,SSW,208,7.7,13.0,36,0.00,,,-99.99,Meteorologica,2013-04-25 22:10:00,
2013-04-25 17:15:00,68.9,40.9,30.11,SSW,201,7.3,15.4,36,0.00,,,-99.99,Meteorologica,2013-04-25 22:15:00,
2013-04-25 17:20:00,68.9,41.8,30.11,South,180,5.3,10.5,37,0.00,,,-99.99,Meteorologica,2013-04-25 22:20:00,
2013-04-25 17:25:00,68.9,41.4,30.11,South,190,7.9,17.7,36,0.00,,,-99.99,Meteorologica,2013-04-25 22:25:00,
2013-04-25 17:30:00,69.1,41.6,30.11,SSW,199,7.4,11.6,37,0.00,,,-99.99,Meteorologica,2013-04-25 22:30:00,
2013-04-25 17:35:00,68.5,39.5,30.10,SW,214,12.8,19.0,34,0.00,,,-99.99,Meteorologica,2013-04-25 22:35:00,
2013-04-25 17:40:00,68.5,40.1,30.10,SSW,207,9.5,14.6,35,0.00,,,-99.99,Meteorologica,2013-04-25 22:40:00,
2013-04-25 17:45:00,68.5,40.0,30.10,SW,226,10.5,17.8,35,0.00,,,-99.99,Meteorologica,2013-04-25 22:45:00,
2013-04-25 17:50:00,68.9,41.4,30.10,South,184,6.2,11.5,36,0.00,,,-99.99,Meteorologica,2013-04-25 22:50:00,
2013-04-25 17:55:00,68.7,39.2,30.10,SW,220,8.1,11.5,34,0.00,,,-99.99,Meteorologica,2013-04-25 22:55:00,
2013-04-25 18:00:00,68.9,40.4,30.10,SSW,196,8.3,13.4,35,0.00,,,-99.99,Meteorologica,2013-04-25 23:00:00,
2013-04-25 18:05:00,68.5,39.6,30.10,South,188,10.1,17.2,34,0.00,,,-99.99,Meteorologica,2013-04-25 23:05:00,
2013-04-25 18:10:00,68.5,40.7,30.10,South,175,7.8,15.2,36,0.00,,,-99.99,Meteorologica,2013-04-25 23:10:00,
2013-04-25 18:15:00,68.2,39.8,30.10,SSW,208,7.4,12.1,35,0.00,,,-99.99,Meteorologica,2013-04-25 23:15:00,
2013-04-25 18:20:00,68.2,39.3,30.10,South,188,9.9,16.2,35,0.00,,,-99.99,Meteorologica,2013-04-25 23:20:00,
2013-04-25 18:25:00,68.0,39.5,30.10,SSE,150,9.6,15.4,35,0.00,,,-99.99,Meteorologica,2013-04-25 23:25:00,
2013-04-25 18:30:00,68.2,40.5,30.09,SSW,197,6.2,13.0,36,0.00,,,-99.99,Meteorologica,2013-04-25 23:30:00,
2013-04-25 18:35:00,68.0,40.4,30.09,SW,231,7.3,11.7,36,0.00,,,-99.99,Meteorologica,2013-04-25 23:35:00,
2013-04-25 18:40:00,67.8,39.8,30.09,South,180,9.3,14.8,36,0.00,,,-99.99,Meteorologica,2013-04-25 23:40:00,
2013-04-25 18:45:00,67.9,39.8,30.09,SE,144,5.2,12.6,36,0.00,,,-99.99,Meteorologica,2013-04-25 23:45:00,
2013-04-25 18:50:00,67.9,39.3,30.09,SSW,199,5.9,14.5,35,0.00,,,-99.99,Meteorologica,2013-04-25 23:50:00,
2013-04-25 18:55:00,67.9,40.1,30.08,South,190,4.2,11.5,36,0.00,,,-99.99,Meteorologica,2013-04-25 23:55:00,
2013-04-25 19:00:00,67.7,39.5,30.09,SW,217,6.0,12.5,35,0.00,,,-99.99,Meteorologica,2013-04-26 00:00:00,
2013-04-25 19:05:00,67.5,39.6,30.09,South,184,9.5,16.1,36,0.00,,,-99.99,Meteorologica,2013-04-26 00:05:00,
2013-04-25 19:10:00,67.3,39.5,30.08,SSW,197,6.7,14.8,36,0.00,,,-99.99,Meteorologica,2013-04-26 00:10:00,
2013-04-25 19:15:00,67.0,40.0,30.09,SW,220,4.6,10.4,37,0.00,,,-99.99,Meteorologica,2013-04-26 00:15:00,
2013-04-25 19:20:00,66.9,40.4,30.09,SSW,194,4.2,9.1,38,0.00,,,-99.99,Meteorologica,2013-04-26 00:20:00,
2013-04-25 19:25:00,66.3,40.4,30.08,SW,217,2.9,10.8,38,0.00,,,-99.99,Meteorologica,2013-04-26 00:25:00,
2013-04-25 19:30:00,65.9,40.7,30.08,SSW,197,6.5,12.2,39,0.00,,,-99.99,Meteorologica,2013-04-26 00:30:00,
2013-04-25 19:35:00,65.7,41.3,30.09,South,187,4.2,9.4,41,0.00,,,-99.99,Meteorologica,2013-04-26 00:35:00,
2013-04-25 19:40:00,65.4,41.2,30.08,SSW,192,4.7,11.5,41,0.00,,,-99.99,Meteorologica,2013-04-26 00:40:00,
2013-04-25 19:45:00,65.2,41.1,30.08,South,180,4.5,7.7,41,0.00,,,-99.99,Meteorologica,2013-04-26 00:45:00,
2013-04-25 19:50:00,65.1,41.1,30.08,South,171,6.7,11.9,41,0.00,,,-99.99,Meteorologica,2013-04-26 00:50:00,
2013-04-25 19:55:00,65.1,41.6,30.08,South,179,5.1,8.6,42,0.00,,,-99.99,Meteorologica,2013-04-26 00:55:00,
2013-04-25 20:00:00,64.8,41.6,30.08,South,191,3.9,7.6,42,0.00,,,-99.99,Meteorologica,2013-04-26 01:00:00,
2013-04-25 20:05:00,64.5,41.5,30.08,SSW,196,6.5,12.5,43,0.00,,,-99.99,Meteorologica,2013-04-26 01:05:00,
2013-04-25 20:10:00,64.4,41.8,30.07,SSW,206,5.6,9.9,43,0.00,,,-99.99,Meteorologica,2013-04-26 01:10:00,
2013-04-25 20:15:00,64.1,41.7,30.08,SW,218,9.1,12.2,44,0.00,,,-99.99,Meteorologica,2013-04-26 01:15:00,
2013-04-25 20:20:00,64.1,41.8,30.08,SW,227,5.9,10.2,44,0.00,,,-99.99,Meteorologica,2013-04-26 01:20:00,
2013-04-25 20:25:00,63.9,42.1,30.08,South,177,5.4,9.7,45,0.00,,,-99.99,Meteorologica,2013-04-26 01:25:00,
2013-04-25 20:30:00,63.6,41.9,30.09,SSE,159,6.8,10.4,45,0.00,,,-99.99,Meteorologica,2013-04-26 01:30:00,
2013-04-25 20:35:00,63.4,42.4,30.09,SSW,192,5.0,7.1,46,0.00,,,-99.99,Meteorologica,2013-04-26 01:35:00,
2013-04-25 20:40:00,63.1,42.6,30.09,SSW,193,3.7,7.1,47,0.00,,,-99.99,Meteorologica,2013-04-26 01:40:00,
2013-04-25 20:45:00,62.8,42.8,30.09,SW,222,2.0,5.4,48,0.00,,,-99.99,Meteorologica,2013-04-26 01:45:00,
2013-04-25 20:50:00,62.5,43.0,30.09,SE,146,3.2,7.8,48,0.00,,,-99.99,Meteorologica,2013-04-26 01:50:00,
2013-04-25 20:55:00,62.2,43.1,30.09,SW,220,2.4,5.0,49,0.00,,,-99.99,Meteorologica,2013-04-26 01:55:00,
2013-04-25 21:00:00,61.8,43.2,30.09,SE,129,0.0,5.5,50,0.00,,,-99.99,Meteorologica,2013-04-26 02:00:00,
2013-04-25 21:05:00,61.5,43.3,30.09,South,191,0.0,3.2,51,0.00,,,-99.99,Meteorologica,2013-04-26 02:05:00,
2013-04-25 21:11:00,61.2,43.1,30.09,SSE,165,0.0,0.0,51,0.00,,,-99.99,Meteorologica,2013-04-26 02:11:00,
2013-04-25 21:16:00,61.0,43.1,30.09,SSE,165,0.0,0.0,51,0.00,,,-99.99,Meteorologica,2013-04-26 02:16:00,
2013-04-25 21:21:00,60.9,42.8,30.09,South,182,0.3,3.1,51,0.00,,,-99.99,Meteorologica,2013-04-26 02:21:00,
2013-04-25 21:26:00,60.8,42.8,30.10,South,187,2.8,6.4,51,0.00,,,-99.99,Meteorologica,2013-04-26 02:26:00,
2013-04-25 21:31:00,60.8,42.9,30.09,SSW,211,1.3,4.3,51,0.00,,,-99.99,Meteorologica,2013-04-26 02:31:00,
2013-04-25 21:36:00,60.8,43.0,30.10,South,182,1.1,6.0,51,0.00,,,-99.99,Meteorologica,2013-04-26 02:36:00,
2013-04-25 21:41:00,60.7,43.0,30.10,SSE,162,0.0,2.3,51,0.00,,,-99.99,Meteorologica,2013-04-26 02:41:00,
2013-04-25 21:46:00,60.5,42.9,30.10,SSE,162,0.0,0.0,52,0.00,,,-99.99,Meteorologica,2013-04-26 02:46:00,
2013-04-25 21:51:00,60.2,42.9,30.10,SSE,162,0.0,0.0,52,0.00,,,-99.99,Meteorologica,2013-04-26 02:51:00,
2013-04-25 21:56:00,59.9,42.9,30.10,SSW,210,1.9,4.8,53,0.00,,,-99.99,Meteorologica,2013-04-26 02:56:00,
2013-04-25 22:01:00,59.5,42.9,30.11,SE,146,0.0,2.7,54,0.00,,,-99.99,Meteorologica,2013-04-26 03:01:00,
2013-04-25 22:06:00,59.2,42.8,30.10,SE,146,0.0,0.0,54,0.00,,,-99.99,Meteorologica,2013-04-26 03:06:00,
2013-04-25 22:11:00,58.8,42.6,30.11,SE,146,0.0,0.0,54,0.00,,,-99.99,Meteorologica,2013-04-26 03:11:00,
2013-04-25 22:16:00,58.4,42.5,30.11,SE,146,0.0,0.0,55,0.00,,,-99.99,Meteorologica,2013-04-26 03:16:00,
2013-04-25 22:21:00,58.1,42.5,30.11,SE,146,0.0,0.0,55,0.00,,,-99.99,Meteorologica,2013-04-26 03:21:00,
2013-04-25 22:27:00,57.7,42.5,30.12,SE,146,0.0,0.0,56,0.00,,,-99.99,Meteorologica,2013-04-26 03:27:00,
2013-04-25 22:32:00,57.3,42.3,30.12,SE,146,0.0,0.0,57,0.00,,,-99.99,Meteorologica,2013-04-26 03:32:00,
2013-04-25 22:37:00,57.0,42.5,30.12,SE,146,0.0,0.0,58,0.00,,,-99.99,Meteorologica,2013-04-26 03:37:00,
2013-04-25 22:42:00,56.7,42.4,30.13,SE,146,0.0,0.0,58,0.00,,,-99.99,Meteorologica,2013-04-26 03:42:00,
2013-04-25 22:47:00,56.4,42.3,30.13,SE,146,0.0,0.0,58,0.00,,,-99.99,Meteorologica,2013-04-26 03:47:00,
2013-04-25 22:52:00,56.2,42.2,30.13,SE,146,0.0,0.0,59,0.00,,,-99.99,Meteorologica,2013-04-26 03:52:00,
2013-04-25 22:57:00,56.0,42.2,30.13,SE,146,0.0,0.0,59,0.00,,,-99.99,Meteorologica,2013-04-26 03:57:00,
2013-04-25 23:02:00,55.9,42.2,30.13,SE,146,0.0,0.0,59,0.00,,,-99.99,Meteorologica,2013-04-26 04:02:00,
2013-04-25 23:03:00,55.9,42.2,30.13,SE,146,0.0,0.0,59,0.00,,,-99.99,Meteorologica,2013-04-26 04:03:00,
2013-04-25 23:04:00,55.9,42.3,30.13,SE,146,0.0,0.0,59,0.00,,,-99.99,Meteorologica,2013-04-26 04:04:00,
2013-04-25 23:05:00,55.9,42.3,30.13,SE,146,0.0,0.0,60,0.00,,,-99.99,Meteorologica,2013-04-26 04:05:00,
2013-04-25 23:10:00,56.0,42.5,30.13,SE,146,0.0,0.0,60,0.00,,,-99.99,Meteorologica,2013-04-26 04:10:00,
2013-04-25 23:15:00,56.1,42.8,30.13,SE,146,0.0,0.0,60,0.00,,,-99.99,Meteorologica,2013-04-26 04:15:00,
2013-04-25 23:18:00,56.1,42.8,30.13,SSE,165,0.2,0.0,60,0.00,,,-99.99,Meteorologica,2013-04-26 04:18:00,
2013-04-25 23:23:00,56.1,42.8,30.13,SSW,197,0.9,0.0,60,0.00,,,-99.99,Meteorologica,2013-04-26 04:23:00,
2013-04-25 23:28:00,56.2,43.0,30.13,South,183,0.0,0.0,61,0.00,,,-99.99,Meteorologica,2013-04-26 04:28:00,
2013-04-25 23:33:00,56.1,43.0,30.13,SSE,163,0.0,5.5,61,0.00,,,-99.99,Meteorologica,2013-04-26 04:33:00,
2013-04-25 23:38:00,56.0,43.2,30.13,SSW,204,0.0,7.8,61,0.00,,,-99.99,Meteorologica,2013-04-26 04:38:00,
2013-04-25 23:43:00,56.1,43.4,30.13,SSE,157,0.6,6.0,62,0.00,,,-99.99,Meteorologica,2013-04-26 04:43:00,
2013-04-25 23:48:00,56.1,43.5,30.13,South,191,0.0,5.3,62,0.00,,,-99.99,Meteorologica,2013-04-26 04:48:00,
2013-04-25 23:53:00,56.3,43.7,30.13,South,179,3.7,7.1,62,0.00,,,-99.99,Meteorologica,2013-04-26 04:53:00,
2013-04-25 23:58:00,56.4,43.8,30.13,SSE,148,2.0,6.3,62,0.00,,,-99.99,Meteorologica,2013-04-26 04:58:00,